sensor_id;sensor_type;location;lat;lon;timestamp;temperature;humidity
69739;DHT22;66905;51.012;4.724;2023-03-01T00:02:06;-1.60;82.50
69739;DHT22;66905;51.012;4.724;2023-03-01T00:04:32;-1.70;83.50
69739;DHT22;66905;51.012;4.724;2023-03-01T00:06:58;-1.70;84.20
69739;DHT22;66905;51.012;4.724;2023-03-01T00:09:23;-1.70;84.00
69739;DHT22;66905;51.012;4.724;2023-03-01T00:11:49;-1.70;84.30
69739;DHT22;66905;51.012;4.724;2023-03-01T00:14:15;-1.70;84.10
69739;DHT22;66905;51.012;4.724;2023-03-01T00:16:46;-1.70;83.90
69739;DHT22;66905;51.012;4.724;2023-03-01T00:19:16;-1.70;83.80
69739;DHT22;66905;51.012;4.724;2023-03-01T00:21:48;-1.70;84.10
69739;DHT22;66905;51.012;4.724;2023-03-01T00:24:14;-1.80;84.30
69739;DHT22;66905;51.012;4.724;2023-03-01T00:26:42;-1.90;84.60
69739;DHT22;66905;51.012;4.724;2023-03-01T00:29:08;-1.90;84.30
69739;DHT22;66905;51.012;4.724;2023-03-01T00:31:36;-1.90;84.50
69739;DHT22;66905;51.012;4.724;2023-03-01T00:34:05;-1.80;84.00
69739;DHT22;66905;51.012;4.724;2023-03-01T00:36:35;-1.80;83.50
69739;DHT22;66905;51.012;4.724;2023-03-01T00:39:02;-1.90;83.90
69739;DHT22;66905;51.012;4.724;2023-03-01T00:41:28;-1.90;84.10
69739;DHT22;66905;51.012;4.724;2023-03-01T00:43:54;-1.90;84.00
69739;DHT22;66905;51.012;4.724;2023-03-01T00:46:22;-1.90;83.90
69739;DHT22;66905;51.012;4.724;2023-03-01T00:48:51;-1.90;83.80
69739;DHT22;66905;51.012;4.724;2023-03-01T00:51:18;-1.90;83.60
69739;DHT22;66905;51.012;4.724;2023-03-01T00:53:44;-2.00;83.70
69739;DHT22;66905;51.012;4.724;2023-03-01T00:56:12;-2.00;83.90
69739;DHT22;66905;51.012;4.724;2023-03-01T00:58:38;-2.00;84.50
69739;DHT22;66905;51.012;4.724;2023-03-01T01:01:27;-1.90;84.50
69739;DHT22;66905;51.012;4.724;2023-03-01T01:06:31;-1.90;83.60
69739;DHT22;66905;51.012;4.724;2023-03-01T01:08:58;-2.00;83.90
69739;DHT22;66905;51.012;4.724;2023-03-01T01:11:27;-2.00;84.10
69739;DHT22;66905;51.012;4.724;2023-03-01T01:13:53;-2.00;84.50
69739;DHT22;66905;51.012;4.724;2023-03-01T01:16:21;-2.00;84.50
69739;DHT22;66905;51.012;4.724;2023-03-01T01:18:50;-2.00;84.50
69739;DHT22;66905;51.012;4.724;2023-03-01T01:21:17;-2.10;84.70
69739;DHT22;66905;51.012;4.724;2023-03-01T01:23:44;-2.10;84.70
69739;DHT22;66905;51.012;4.724;2023-03-01T01:26:19;-2.10;85.10
69739;DHT22;66905;51.012;4.724;2023-03-01T01:28:47;-2.10;85.20
69739;DHT22;66905;51.012;4.724;2023-03-01T01:31:14;-2.10;84.90
69739;DHT22;66905;51.012;4.724;2023-03-01T01:33:40;-2.10;84.80
69739;DHT22;66905;51.012;4.724;2023-03-01T01:36:07;-2.10;84.60
69739;DHT22;66905;51.012;4.724;2023-03-01T01:38:34;-2.10;84.90
69739;DHT22;66905;51.012;4.724;2023-03-01T01:41:00;-2.00;84.60
69739;DHT22;66905;51.012;4.724;2023-03-01T01:43:42;-2.10;84.90
69739;DHT22;66905;51.012;4.724;2023-03-01T01:46:32;-2.10;85.10
69739;DHT22;66905;51.012;4.724;2023-03-01T01:54:42;-2.20;85.00
69739;DHT22;66905;51.012;4.724;2023-03-01T01:57:18;-2.30;85.20
69739;DHT22;66905;51.012;4.724;2023-03-01T01:59:50;-2.30;85.70
69739;DHT22;66905;51.012;4.724;2023-03-01T02:02:16;-2.30;85.50
69739;DHT22;66905;51.012;4.724;2023-03-01T02:04:42;-2.30;85.80
69739;DHT22;66905;51.012;4.724;2023-03-01T02:07:18;-2.40;86.10
69739;DHT22;66905;51.012;4.724;2023-03-01T02:09:49;-2.30;86.30
69739;DHT22;66905;51.012;4.724;2023-03-01T02:12:18;-2.40;85.70
69739;DHT22;66905;51.012;4.724;2023-03-01T02:14:44;-2.40;85.40
69739;DHT22;66905;51.012;4.724;2023-03-01T02:17:14;-2.40;85.80
69739;DHT22;66905;51.012;4.724;2023-03-01T02:22:33;-2.50;86.20
69739;DHT22;66905;51.012;4.724;2023-03-01T02:30:39;-2.50;85.00
69739;DHT22;66905;51.012;4.724;2023-03-01T02:33:26;-2.50;85.70
69739;DHT22;66905;51.012;4.724;2023-03-01T02:35:53;-2.50;85.30
69739;DHT22;66905;51.012;4.724;2023-03-01T02:38:20;-2.40;85.50
69739;DHT22;66905;51.012;4.724;2023-03-01T02:40:47;-2.60;85.20
69739;DHT22;66905;51.012;4.724;2023-03-01T02:43:14;-2.60;85.50
69739;DHT22;66905;51.012;4.724;2023-03-01T02:45:49;-2.60;85.30
69739;DHT22;66905;51.012;4.724;2023-03-01T02:48:15;-2.60;85.20
69739;DHT22;66905;51.012;4.724;2023-03-01T02:51:26;-2.70;85.20
69739;DHT22;66905;51.012;4.724;2023-03-01T02:56:01;-2.60;85.40
69739;DHT22;66905;51.012;4.724;2023-03-01T02:58:27;-2.60;85.80
69739;DHT22;66905;51.012;4.724;2023-03-01T03:00:52;-2.60;85.30
69739;DHT22;66905;51.012;4.724;2023-03-01T03:03:20;-2.60;85.00
69739;DHT22;66905;51.012;4.724;2023-03-01T03:05:47;-2.70;85.20
69739;DHT22;66905;51.012;4.724;2023-03-01T03:08:14;-2.70;85.50
69739;DHT22;66905;51.012;4.724;2023-03-01T03:10:42;-2.80;86.00
69739;DHT22;66905;51.012;4.724;2023-03-01T03:13:13;-2.70;86.20
69739;DHT22;66905;51.012;4.724;2023-03-01T03:15:45;-2.80;85.70
69739;DHT22;66905;51.012;4.724;2023-03-01T03:18:13;-2.70;84.90
69739;DHT22;66905;51.012;4.724;2023-03-01T03:20:43;-2.70;85.20
69739;DHT22;66905;51.012;4.724;2023-03-01T03:23:09;-2.80;85.40
69739;DHT22;66905;51.012;4.724;2023-03-01T03:25:37;-2.80;85.80
69739;DHT22;66905;51.012;4.724;2023-03-01T03:28:06;-2.80;85.80
69739;DHT22;66905;51.012;4.724;2023-03-01T03:30:37;-2.90;86.00
69739;DHT22;66905;51.012;4.724;2023-03-01T03:33:05;-2.80;86.50
69739;DHT22;66905;51.012;4.724;2023-03-01T03:35:45;-2.70;86.10
69739;DHT22;66905;51.012;4.724;2023-03-01T03:38:12;-2.80;85.90
69739;DHT22;66905;51.012;4.724;2023-03-01T03:40:49;-2.80;85.70
69739;DHT22;66905;51.012;4.724;2023-03-01T03:43:20;-2.80;86.20
69739;DHT22;66905;51.012;4.724;2023-03-01T03:45:49;-2.80;85.70
69739;DHT22;66905;51.012;4.724;2023-03-01T03:48:16;-2.80;85.80
69739;DHT22;66905;51.012;4.724;2023-03-01T03:50:46;-2.80;85.70
69739;DHT22;66905;51.012;4.724;2023-03-01T03:53:12;-2.70;85.70
69739;DHT22;66905;51.012;4.724;2023-03-01T03:55:39;-2.80;85.50
69739;DHT22;66905;51.012;4.724;2023-03-01T03:58:07;-2.80;85.70
69739;DHT22;66905;51.012;4.724;2023-03-01T04:00:40;-2.80;85.80
69739;DHT22;66905;51.012;4.724;2023-03-01T04:03:10;-2.80;85.70
69739;DHT22;66905;51.012;4.724;2023-03-01T04:05:37;-2.80;85.40
69739;DHT22;66905;51.012;4.724;2023-03-01T04:08:04;-2.80;85.30
69739;DHT22;66905;51.012;4.724;2023-03-01T04:10:37;-2.90;85.20
69739;DHT22;66905;51.012;4.724;2023-03-01T04:13:05;-2.90;85.20
69739;DHT22;66905;51.012;4.724;2023-03-01T04:15:31;-3.00;85.30
69739;DHT22;66905;51.012;4.724;2023-03-01T04:18:03;-2.90;85.60
69739;DHT22;66905;51.012;4.724;2023-03-01T04:20:31;-2.90;85.40
69739;DHT22;66905;51.012;4.724;2023-03-01T04:22:59;-2.90;85.60
69739;DHT22;66905;51.012;4.724;2023-03-01T04:28:25;-3.10;86.10
69739;DHT22;66905;51.012;4.724;2023-03-01T04:30:51;-3.00;86.40
69739;DHT22;66905;51.012;4.724;2023-03-01T04:33:18;-2.90;85.90
69739;DHT22;66905;51.012;4.724;2023-03-01T04:35:43;-3.00;85.00
69739;DHT22;66905;51.012;4.724;2023-03-01T04:38:09;-3.00;85.10
69739;DHT22;66905;51.012;4.724;2023-03-01T04:40:35;-3.00;85.50
69739;DHT22;66905;51.012;4.724;2023-03-01T04:43:02;-3.00;85.30
69739;DHT22;66905;51.012;4.724;2023-03-01T04:45:32;-3.10;85.30
69739;DHT22;66905;51.012;4.724;2023-03-01T04:48:00;-3.20;85.50
69739;DHT22;66905;51.012;4.724;2023-03-01T04:50:26;-3.20;85.60
69739;DHT22;66905;51.012;4.724;2023-03-01T04:52:52;-3.20;86.40
69739;DHT22;66905;51.012;4.724;2023-03-01T04:55:17;-3.20;86.80
69739;DHT22;66905;51.012;4.724;2023-03-01T04:57:43;-3.20;86.80
69739;DHT22;66905;51.012;4.724;2023-03-01T05:00:13;-3.20;86.60
69739;DHT22;66905;51.012;4.724;2023-03-01T05:05:24;-3.20;85.80
69739;DHT22;66905;51.012;4.724;2023-03-01T05:07:55;-3.30;86.50
69739;DHT22;66905;51.012;4.724;2023-03-01T05:10:21;-3.30;86.20
69739;DHT22;66905;51.012;4.724;2023-03-01T05:12:47;-3.40;86.10
69739;DHT22;66905;51.012;4.724;2023-03-01T05:15:13;-3.40;86.10
69739;DHT22;66905;51.012;4.724;2023-03-01T05:17:39;-3.40;86.70
69739;DHT22;66905;51.012;4.724;2023-03-01T05:20:05;-3.30;86.90
69739;DHT22;66905;51.012;4.724;2023-03-01T05:22:34;-3.30;86.50
69739;DHT22;66905;51.012;4.724;2023-03-01T05:25:01;-3.30;86.10
69739;DHT22;66905;51.012;4.724;2023-03-01T05:27:29;-3.30;85.60
69739;DHT22;66905;51.012;4.724;2023-03-01T05:29:55;-3.40;86.30
69739;DHT22;66905;51.012;4.724;2023-03-01T05:32:21;-3.40;86.50
69739;DHT22;66905;51.012;4.724;2023-03-01T05:34:47;-3.40;86.40
69739;DHT22;66905;51.012;4.724;2023-03-01T05:37:15;-3.40;86.50
69739;DHT22;66905;51.012;4.724;2023-03-01T05:39:41;-3.40;86.70
69739;DHT22;66905;51.012;4.724;2023-03-01T05:42:10;-3.50;86.30
69739;DHT22;66905;51.012;4.724;2023-03-01T05:44:36;-3.50;86.20
69739;DHT22;66905;51.012;4.724;2023-03-01T05:47:04;-3.50;87.20
69739;DHT22;66905;51.012;4.724;2023-03-01T05:49:31;-3.40;86.70
69739;DHT22;66905;51.012;4.724;2023-03-01T05:51:59;-3.40;86.60
69739;DHT22;66905;51.012;4.724;2023-03-01T05:54:25;-3.30;86.20
69739;DHT22;66905;51.012;4.724;2023-03-01T05:56:51;-3.30;85.80
69739;DHT22;66905;51.012;4.724;2023-03-01T05:59:17;-3.30;85.80
69739;DHT22;66905;51.012;4.724;2023-03-01T06:01:42;-3.30;86.10
69739;DHT22;66905;51.012;4.724;2023-03-01T06:04:11;-3.30;86.40
69739;DHT22;66905;51.012;4.724;2023-03-01T06:06:39;-3.40;85.70
69739;DHT22;66905;51.012;4.724;2023-03-01T06:09:07;-3.40;85.60
69739;DHT22;66905;51.012;4.724;2023-03-01T06:11:35;-3.40;85.70
69739;DHT22;66905;51.012;4.724;2023-03-01T06:14:01;-3.50;87.00
69739;DHT22;66905;51.012;4.724;2023-03-01T06:16:29;-3.40;87.50
69739;DHT22;66905;51.012;4.724;2023-03-01T06:18:55;-3.40;87.00
69739;DHT22;66905;51.012;4.724;2023-03-01T06:21:21;-3.40;86.90
69739;DHT22;66905;51.012;4.724;2023-03-01T06:23:47;-3.50;86.60
69739;DHT22;66905;51.012;4.724;2023-03-01T06:26:15;-3.50;87.20
69739;DHT22;66905;51.012;4.724;2023-03-01T06:28:41;-3.40;86.60
69739;DHT22;66905;51.012;4.724;2023-03-01T06:31:06;-3.50;86.70
69739;DHT22;66905;51.012;4.724;2023-03-01T06:33:34;-3.50;87.70
69739;DHT22;66905;51.012;4.724;2023-03-01T06:35:59;-3.50;87.60
69739;DHT22;66905;51.012;4.724;2023-03-01T06:38:25;-3.50;86.90
69739;DHT22;66905;51.012;4.724;2023-03-01T06:40:55;-3.50;87.00
69739;DHT22;66905;51.012;4.724;2023-03-01T06:43:23;-3.50;86.80
69739;DHT22;66905;51.012;4.724;2023-03-01T06:45:49;-3.50;86.80
69739;DHT22;66905;51.012;4.724;2023-03-01T06:48:17;-3.40;87.20
69739;DHT22;66905;51.012;4.724;2023-03-01T06:50:45;-3.30;87.30
69739;DHT22;66905;51.012;4.724;2023-03-01T06:53:11;-3.20;87.00
69739;DHT22;66905;51.012;4.724;2023-03-01T06:55:36;-3.20;86.60
69739;DHT22;66905;51.012;4.724;2023-03-01T06:58:03;-3.10;86.70
69739;DHT22;66905;51.012;4.724;2023-03-01T07:00:31;-3.00;87.20
69739;DHT22;66905;51.012;4.724;2023-03-01T07:03:03;-3.00;86.90
69739;DHT22;66905;51.012;4.724;2023-03-01T07:05:32;-3.00;86.70
69739;DHT22;66905;51.012;4.724;2023-03-01T07:07:58;-2.90;86.40
69739;DHT22;66905;51.012;4.724;2023-03-01T07:10:24;-2.80;86.60
69739;DHT22;66905;51.012;4.724;2023-03-01T07:12:50;-2.60;87.00
69739;DHT22;66905;51.012;4.724;2023-03-01T07:15:15;-2.40;87.50
69739;DHT22;66905;51.012;4.724;2023-03-01T07:17:41;-2.10;86.20
69739;DHT22;66905;51.012;4.724;2023-03-01T07:20:08;-1.90;85.00
69739;DHT22;66905;51.012;4.724;2023-03-01T07:22:33;-1.60;84.30
69739;DHT22;66905;51.012;4.724;2023-03-01T07:25:02;-1.20;83.40
69739;DHT22;66905;51.012;4.724;2023-03-01T07:27:27;-0.70;81.80
69739;DHT22;66905;51.012;4.724;2023-03-01T07:29:53;-0.20;79.20
69739;DHT22;66905;51.012;4.724;2023-03-01T07:32:18;-0.40;79.20
69739;DHT22;66905;51.012;4.724;2023-03-01T07:34:44;-0.40;80.40
69739;DHT22;66905;51.012;4.724;2023-03-01T07:37:10;-0.20;79.50
69739;DHT22;66905;51.012;4.724;2023-03-01T07:39:35;0.00;78.40
69739;DHT22;66905;51.012;4.724;2023-03-01T07:42:03;0.20;78.30
69739;DHT22;66905;51.012;4.724;2023-03-01T07:44:29;0.50;77.80
69739;DHT22;66905;51.012;4.724;2023-03-01T07:46:57;0.70;77.50
69739;DHT22;66905;51.012;4.724;2023-03-01T07:49:24;0.80;76.90
69739;DHT22;66905;51.012;4.724;2023-03-01T07:51:52;0.70;77.40
69739;DHT22;66905;51.012;4.724;2023-03-01T07:54:17;0.80;77.00
69739;DHT22;66905;51.012;4.724;2023-03-01T07:56:43;0.80;76.20
69739;DHT22;66905;51.012;4.724;2023-03-01T07:59:11;0.90;76.60
69739;DHT22;66905;51.012;4.724;2023-03-01T08:01:37;1.10;76.30
69739;DHT22;66905;51.012;4.724;2023-03-01T08:04:07;1.40;76.10
69739;DHT22;66905;51.012;4.724;2023-03-01T08:06:38;1.70;74.60
69739;DHT22;66905;51.012;4.724;2023-03-01T08:09:04;2.20;72.60
69739;DHT22;66905;51.012;4.724;2023-03-01T08:11:29;3.00;71.30
69739;DHT22;66905;51.012;4.724;2023-03-01T08:13:55;3.80;68.10
69739;DHT22;66905;51.012;4.724;2023-03-01T08:16:21;4.50;65.40
69739;DHT22;66905;51.012;4.724;2023-03-01T08:18:47;5.30;64.10
69739;DHT22;66905;51.012;4.724;2023-03-01T08:21:15;5.90;56.20
69739;DHT22;66905;51.012;4.724;2023-03-01T08:23:41;6.30;57.70
69739;DHT22;66905;51.012;4.724;2023-03-01T08:26:13;6.70;56.90
69739;DHT22;66905;51.012;4.724;2023-03-01T08:28:39;7.00;55.40
69739;DHT22;66905;51.012;4.724;2023-03-01T08:31:25;7.10;51.20
69739;DHT22;66905;51.012;4.724;2023-03-01T08:33:54;7.00;52.40
69739;DHT22;66905;51.012;4.724;2023-03-01T08:36:25;7.10;51.80
69739;DHT22;66905;51.012;4.724;2023-03-01T08:38:51;7.60;51.40
69739;DHT22;66905;51.012;4.724;2023-03-01T08:41:17;7.60;50.00
69739;DHT22;66905;51.012;4.724;2023-03-01T08:43:43;7.90;51.30
69739;DHT22;66905;51.012;4.724;2023-03-01T08:46:09;7.80;49.90
69739;DHT22;66905;51.012;4.724;2023-03-01T08:48:38;8.20;48.00
69739;DHT22;66905;51.012;4.724;2023-03-01T08:51:16;7.80;49.60
69739;DHT22;66905;51.012;4.724;2023-03-01T08:53:42;8.10;48.50
69739;DHT22;66905;51.012;4.724;2023-03-01T08:56:11;8.10;50.10
69739;DHT22;66905;51.012;4.724;2023-03-01T08:58:39;8.30;48.20
69739;DHT22;66905;51.012;4.724;2023-03-01T09:01:13;8.30;48.60
69739;DHT22;66905;51.012;4.724;2023-03-01T09:03:40;7.90;49.40
69739;DHT22;66905;51.012;4.724;2023-03-01T09:06:07;8.20;49.20
69739;DHT22;66905;51.012;4.724;2023-03-01T09:08:41;8.80;48.60
69739;DHT22;66905;51.012;4.724;2023-03-01T09:11:09;9.50;46.00
69739;DHT22;66905;51.012;4.724;2023-03-01T09:13:35;9.20;45.10
69739;DHT22;66905;51.012;4.724;2023-03-01T09:16:02;9.10;44.80
69739;DHT22;66905;51.012;4.724;2023-03-01T09:18:29;8.70;46.60
69739;DHT22;66905;51.012;4.724;2023-03-01T09:21:05;8.50;46.90
69739;DHT22;66905;51.012;4.724;2023-03-01T09:23:39;8.70;47.20
69739;DHT22;66905;51.012;4.724;2023-03-01T09:26:17;9.10;45.80
69739;DHT22;66905;51.012;4.724;2023-03-01T09:28:45;9.30;44.30
69739;DHT22;66905;51.012;4.724;2023-03-01T09:31:14;9.70;43.90
69739;DHT22;66905;51.012;4.724;2023-03-01T09:33:40;10.60;42.60
69739;DHT22;66905;51.012;4.724;2023-03-01T09:36:10;10.50;42.30
69739;DHT22;66905;51.012;4.724;2023-03-01T09:38:36;10.00;42.60
69739;DHT22;66905;51.012;4.724;2023-03-01T09:41:23;9.50;45.50
69739;DHT22;66905;51.012;4.724;2023-03-01T09:43:58;9.80;43.20
69739;DHT22;66905;51.012;4.724;2023-03-01T09:46:25;9.20;44.40
69739;DHT22;66905;51.012;4.724;2023-03-01T09:48:56;9.50;44.30
69739;DHT22;66905;51.012;4.724;2023-03-01T09:51:32;10.20;43.80
69739;DHT22;66905;51.012;4.724;2023-03-01T09:53:58;11.00;42.80
69739;DHT22;66905;51.012;4.724;2023-03-01T09:59:02;10.40;42.00
69739;DHT22;66905;51.012;4.724;2023-03-01T10:04:41;10.10;43.30
69739;DHT22;66905;51.012;4.724;2023-03-01T10:09:40;9.10;43.70
69739;DHT22;66905;51.012;4.724;2023-03-01T10:12:34;9.30;44.40
69739;DHT22;66905;51.012;4.724;2023-03-01T10:15:14;9.20;43.20
69739;DHT22;66905;51.012;4.724;2023-03-01T10:20:30;8.90;44.40
69739;DHT22;66905;51.012;4.724;2023-03-01T10:22:58;9.00;43.80
69739;DHT22;66905;51.012;4.724;2023-03-01T10:28:26;9.90;42.00
69739;DHT22;66905;51.012;4.724;2023-03-01T10:30:53;9.60;42.70
69739;DHT22;66905;51.012;4.724;2023-03-01T10:35:45;9.80;41.70
69739;DHT22;66905;51.012;4.724;2023-03-01T10:38:17;9.80;42.50
69739;DHT22;66905;51.012;4.724;2023-03-01T10:43:17;10.70;40.00
69739;DHT22;66905;51.012;4.724;2023-03-01T10:45:43;10.60;40.20
69739;DHT22;66905;51.012;4.724;2023-03-01T10:48:22;11.20;40.10
69739;DHT22;66905;51.012;4.724;2023-03-01T10:53:41;11.60;38.60
69739;DHT22;66905;51.012;4.724;2023-03-01T10:56:09;11.70;38.90
69739;DHT22;66905;51.012;4.724;2023-03-01T10:58:40;11.90;38.90
69739;DHT22;66905;51.012;4.724;2023-03-01T11:01:28;12.10;36.90
69739;DHT22;66905;51.012;4.724;2023-03-01T11:06:37;12.40;37.50
69739;DHT22;66905;51.012;4.724;2023-03-01T11:09:15;12.50;37.40
69739;DHT22;66905;51.012;4.724;2023-03-01T11:11:41;12.90;37.20
69739;DHT22;66905;51.012;4.724;2023-03-01T11:16:35;13.00;36.20
69739;DHT22;66905;51.012;4.724;2023-03-01T11:24:15;12.70;36.10
69739;DHT22;66905;51.012;4.724;2023-03-01T11:26:50;12.50;35.80
69739;DHT22;66905;51.012;4.724;2023-03-01T11:29:30;11.70;37.60
69739;DHT22;66905;51.012;4.724;2023-03-01T11:32:01;10.90;39.40
69739;DHT22;66905;51.012;4.724;2023-03-01T11:34:38;10.80;39.10
69739;DHT22;66905;51.012;4.724;2023-03-01T11:37:20;10.80;38.60
69739;DHT22;66905;51.012;4.724;2023-03-01T11:40:02;11.00;38.40
69739;DHT22;66905;51.012;4.724;2023-03-01T11:45:11;10.80;38.40
69739;DHT22;66905;51.012;4.724;2023-03-01T12:06:56;11.70;37.20
69739;DHT22;66905;51.012;4.724;2023-03-01T12:09:38;12.00;37.50
69739;DHT22;66905;51.012;4.724;2023-03-01T12:12:30;12.20;36.70
69739;DHT22;66905;51.012;4.724;2023-03-01T12:26:23;11.90;37.20
69739;DHT22;66905;51.012;4.724;2023-03-01T12:29:12;12.30;37.60
69739;DHT22;66905;51.012;4.724;2023-03-01T12:42:25;11.40;36.60
69739;DHT22;66905;51.012;4.724;2023-03-01T12:50:12;10.90;39.80
69739;DHT22;66905;51.012;4.724;2023-03-01T12:53:00;11.40;41.70
69739;DHT22;66905;51.012;4.724;2023-03-01T12:55:38;11.00;39.80
69739;DHT22;66905;51.012;4.724;2023-03-01T12:58:33;10.80;41.80
69739;DHT22;66905;51.012;4.724;2023-03-01T13:01:07;10.80;40.80
69739;DHT22;66905;51.012;4.724;2023-03-01T13:06:46;11.40;39.10
69739;DHT22;66905;51.012;4.724;2023-03-01T13:09:46;11.20;41.80
69739;DHT22;66905;51.012;4.724;2023-03-01T13:18:25;11.00;39.80
69739;DHT22;66905;51.012;4.724;2023-03-01T13:20:52;11.20;38.00
69739;DHT22;66905;51.012;4.724;2023-03-01T13:33:51;10.70;39.90
69739;DHT22;66905;51.012;4.724;2023-03-01T13:38:58;10.40;38.90
69739;DHT22;66905;51.012;4.724;2023-03-01T13:44:33;10.60;39.60
69739;DHT22;66905;51.012;4.724;2023-03-01T13:47:16;10.90;39.30
69739;DHT22;66905;51.012;4.724;2023-03-01T13:49:53;11.10;38.20
69739;DHT22;66905;51.012;4.724;2023-03-01T13:52:42;11.00;37.40
69739;DHT22;66905;51.012;4.724;2023-03-01T13:57:47;10.80;39.70
69739;DHT22;66905;51.012;4.724;2023-03-01T14:00:35;11.20;39.50
69739;DHT22;66905;51.012;4.724;2023-03-01T14:03:19;11.50;37.70
69739;DHT22;66905;51.012;4.724;2023-03-01T14:06:06;11.30;39.20
69739;DHT22;66905;51.012;4.724;2023-03-01T14:08:34;10.60;40.70
69739;DHT22;66905;51.012;4.724;2023-03-01T14:19:03;10.00;40.50
69739;DHT22;66905;51.012;4.724;2023-03-01T14:21:30;10.10;41.60
69739;DHT22;66905;51.012;4.724;2023-03-01T14:23:57;10.60;40.40
69739;DHT22;66905;51.012;4.724;2023-03-01T14:26:24;10.90;40.00
69739;DHT22;66905;51.012;4.724;2023-03-01T14:28:50;10.90;39.40
69739;DHT22;66905;51.012;4.724;2023-03-01T14:31:39;10.80;40.50
69739;DHT22;66905;51.012;4.724;2023-03-01T14:34:19;10.90;40.90
69739;DHT22;66905;51.012;4.724;2023-03-01T14:36:46;11.30;39.10
69739;DHT22;66905;51.012;4.724;2023-03-01T14:39:20;11.00;37.20
69739;DHT22;66905;51.012;4.724;2023-03-01T14:41:49;10.60;40.20
69739;DHT22;66905;51.012;4.724;2023-03-01T14:44:21;10.60;40.30
69739;DHT22;66905;51.012;4.724;2023-03-01T14:46:54;10.80;40.10
69739;DHT22;66905;51.012;4.724;2023-03-01T14:49:24;11.20;38.90
69739;DHT22;66905;51.012;4.724;2023-03-01T14:51:58;11.20;37.60
69739;DHT22;66905;51.012;4.724;2023-03-01T14:54:45;10.80;38.90
69739;DHT22;66905;51.012;4.724;2023-03-01T14:57:20;10.60;39.60
69739;DHT22;66905;51.012;4.724;2023-03-01T14:59:54;10.30;40.70
69739;DHT22;66905;51.012;4.724;2023-03-01T15:02:25;10.10;40.00
69739;DHT22;66905;51.012;4.724;2023-03-01T15:04:54;10.10;40.40
69739;DHT22;66905;51.012;4.724;2023-03-01T15:07:25;10.10;40.80
69739;DHT22;66905;51.012;4.724;2023-03-01T15:09:54;10.10;40.00
69739;DHT22;66905;51.012;4.724;2023-03-01T15:14:57;10.50;38.60
69739;DHT22;66905;51.012;4.724;2023-03-01T15:17:33;10.40;39.40
69739;DHT22;66905;51.012;4.724;2023-03-01T15:20:02;9.90;39.50
69739;DHT22;66905;51.012;4.724;2023-03-01T15:22:29;9.90;39.40
69739;DHT22;66905;51.012;4.724;2023-03-01T15:24:55;9.50;39.70
69739;DHT22;66905;51.012;4.724;2023-03-01T15:27:25;9.00;41.20
69739;DHT22;66905;51.012;4.724;2023-03-01T15:29:59;8.60;41.60
69739;DHT22;66905;51.012;4.724;2023-03-01T15:34:57;8.10;44.20
69739;DHT22;66905;51.012;4.724;2023-03-01T15:37:37;8.10;46.00
69739;DHT22;66905;51.012;4.724;2023-03-01T15:42:45;8.00;46.10
69739;DHT22;66905;51.012;4.724;2023-03-01T15:47:40;7.90;45.10
69739;DHT22;66905;51.012;4.724;2023-03-01T15:50:19;7.80;45.80
69739;DHT22;66905;51.012;4.724;2023-03-01T15:52:46;7.90;46.50
69739;DHT22;66905;51.012;4.724;2023-03-01T15:57:46;7.80;49.20
69739;DHT22;66905;51.012;4.724;2023-03-01T16:00:13;7.80;47.70
69739;DHT22;66905;51.012;4.724;2023-03-01T16:02:40;7.80;47.80
69739;DHT22;66905;51.012;4.724;2023-03-01T16:07:43;7.70;46.40
69739;DHT22;66905;51.012;4.724;2023-03-01T16:10:09;7.60;46.90
69739;DHT22;66905;51.012;4.724;2023-03-01T16:12:35;7.60;46.60
69739;DHT22;66905;51.012;4.724;2023-03-01T16:15:00;7.40;47.50
69739;DHT22;66905;51.012;4.724;2023-03-01T16:17:26;7.40;47.00
69739;DHT22;66905;51.012;4.724;2023-03-01T16:19:54;7.30;47.30
69739;DHT22;66905;51.012;4.724;2023-03-01T16:22:19;7.20;47.60
69739;DHT22;66905;51.012;4.724;2023-03-01T16:24:52;7.30;47.30
69739;DHT22;66905;51.012;4.724;2023-03-01T16:27:18;7.20;47.60
69739;DHT22;66905;51.012;4.724;2023-03-01T16:29:46;7.10;47.90
69739;DHT22;66905;51.012;4.724;2023-03-01T16:32:12;7.00;47.80
69739;DHT22;66905;51.012;4.724;2023-03-01T16:34:40;6.90;48.10
69739;DHT22;66905;51.012;4.724;2023-03-01T16:37:05;6.90;48.00
69739;DHT22;66905;51.012;4.724;2023-03-01T16:39:31;6.90;48.60
69739;DHT22;66905;51.012;4.724;2023-03-01T16:42:00;6.90;48.30
69739;DHT22;66905;51.012;4.724;2023-03-01T16:44:30;6.80;48.60
69739;DHT22;66905;51.012;4.724;2023-03-01T16:46:58;6.80;48.70
69739;DHT22;66905;51.012;4.724;2023-03-01T16:49:24;6.80;48.60
69739;DHT22;66905;51.012;4.724;2023-03-01T16:51:50;6.70;48.90
69739;DHT22;66905;51.012;4.724;2023-03-01T16:54:15;6.60;49.30
69739;DHT22;66905;51.012;4.724;2023-03-01T16:56:43;6.60;50.30
69739;DHT22;66905;51.012;4.724;2023-03-01T16:59:09;6.50;49.80
69739;DHT22;66905;51.012;4.724;2023-03-01T17:01:35;6.50;49.60
69739;DHT22;66905;51.012;4.724;2023-03-01T17:04:04;6.40;49.90
69739;DHT22;66905;51.012;4.724;2023-03-01T17:06:30;6.40;50.00
69739;DHT22;66905;51.012;4.724;2023-03-01T17:08:59;6.30;50.40
69739;DHT22;66905;51.012;4.724;2023-03-01T17:11:24;6.30;51.10
69739;DHT22;66905;51.012;4.724;2023-03-01T17:13:50;6.30;50.90
69739;DHT22;66905;51.012;4.724;2023-03-01T17:16:18;6.20;50.90
69739;DHT22;66905;51.012;4.724;2023-03-01T17:18:45;6.20;50.70
69739;DHT22;66905;51.012;4.724;2023-03-01T17:21:11;6.20;50.70
69739;DHT22;66905;51.012;4.724;2023-03-01T17:23:39;6.10;51.40
69739;DHT22;66905;51.012;4.724;2023-03-01T17:26:09;6.00;51.60
69739;DHT22;66905;51.012;4.724;2023-03-01T17:28:36;5.90;52.10
69739;DHT22;66905;51.012;4.724;2023-03-01T17:31:05;5.90;52.10
69739;DHT22;66905;51.012;4.724;2023-03-01T17:33:31;5.80;51.70
69739;DHT22;66905;51.012;4.724;2023-03-01T17:35:58;5.80;52.00
69739;DHT22;66905;51.012;4.724;2023-03-01T17:38:26;5.70;52.60
69739;DHT22;66905;51.012;4.724;2023-03-01T17:40:52;5.70;52.40
69739;DHT22;66905;51.012;4.724;2023-03-01T17:43:20;5.60;53.20
69739;DHT22;66905;51.012;4.724;2023-03-01T17:45:46;5.60;52.50
69739;DHT22;66905;51.012;4.724;2023-03-01T17:48:14;5.50;53.10
69739;DHT22;66905;51.012;4.724;2023-03-01T17:50:40;5.40;52.80
69739;DHT22;66905;51.012;4.724;2023-03-01T17:53:07;5.40;52.70
69739;DHT22;66905;51.012;4.724;2023-03-01T17:55:41;5.40;53.40
69739;DHT22;66905;51.012;4.724;2023-03-01T17:58:08;5.30;53.40
69739;DHT22;66905;51.012;4.724;2023-03-01T18:00:35;5.20;53.60
69739;DHT22;66905;51.012;4.724;2023-03-01T18:03:01;5.20;53.60
69739;DHT22;66905;51.012;4.724;2023-03-01T18:05:35;5.10;53.90
69739;DHT22;66905;51.012;4.724;2023-03-01T18:08:02;5.10;54.80
69739;DHT22;66905;51.012;4.724;2023-03-01T18:10:28;5.10;54.60
69739;DHT22;66905;51.012;4.724;2023-03-01T18:12:55;5.00;54.70
69739;DHT22;66905;51.012;4.724;2023-03-01T18:15:21;4.90;57.00
69739;DHT22;66905;51.012;4.724;2023-03-01T18:17:48;4.70;57.10
69739;DHT22;66905;51.012;4.724;2023-03-01T18:20:14;4.60;56.80
69739;DHT22;66905;51.012;4.724;2023-03-01T18:22:41;4.60;57.70
69739;DHT22;66905;51.012;4.724;2023-03-01T18:25:07;4.40;58.90
69739;DHT22;66905;51.012;4.724;2023-03-01T18:27:32;4.10;60.70